createdAt,value
2023-01-28T00:01:09.152Z,13.61
2023-01-28T00:03:37.633Z,13.60
2023-01-28T00:06:09.700Z,13.54
2023-01-28T00:08:37.960Z,13.54
2023-01-28T00:11:08.694Z,13.53
2023-01-28T00:13:36.847Z,13.53
2023-01-28T00:16:08.579Z,13.50
2023-01-28T00:18:37.454Z,13.47
2023-01-28T00:21:09.158Z,13.45
2023-01-28T00:23:38.813Z,13.45
2023-01-28T00:26:11.053Z,13.41
2023-01-28T00:28:39.214Z,13.36
2023-01-28T00:31:09.923Z,13.37
2023-01-28T00:33:43.277Z,13.36
2023-01-28T00:36:13.892Z,13.36
2023-01-28T00:38:43.289Z,13.32
2023-01-28T00:41:13.740Z,13.32
2023-01-28T00:43:42.951Z,13.31
2023-01-28T00:46:12.356Z,13.30
2023-01-28T00:48:42.155Z,13.25
2023-01-28T00:51:13.694Z,13.25
2023-01-28T00:53:42.150Z,13.23
2023-01-28T00:56:14.010Z,13.22
2023-01-28T00:58:42.790Z,13.20
2023-01-28T01:01:12.642Z,13.18
2023-01-28T01:03:40.938Z,13.18
2023-01-28T01:06:10.049Z,13.14
2023-01-28T01:08:43.073Z,13.13
2023-01-28T01:11:13.154Z,13.11
2023-01-28T01:13:41.418Z,13.09
2023-01-28T01:16:12.746Z,13.08
2023-01-28T01:18:42.032Z,13.06
2023-01-28T01:21:12.505Z,13.05
2023-01-28T01:23:42.136Z,13.04
2023-01-28T01:26:10.322Z,13.04
2023-01-28T01:28:39.042Z,12.99
2023-01-28T01:31:09.402Z,12.99
2023-01-28T01:33:37.465Z,12.98
2023-01-28T01:36:05.923Z,12.94
2023-01-28T01:38:34.026Z,12.96
2023-01-28T01:41:04.071Z,12.93
2023-01-28T01:43:49.710Z,12.93
2023-01-28T01:46:23.118Z,12.91
2023-01-28T01:48:52.058Z,12.89
2023-01-28T01:51:25.581Z,12.89
2023-01-28T01:53:55.549Z,12.87
2023-01-28T01:56:31.166Z,12.85
2023-01-28T01:58:59.835Z,12.82
2023-01-28T02:01:32.361Z,12.82
2023-01-28T02:04:07.216Z,12.77
2023-01-28T02:06:36.560Z,12.80
2023-01-28T02:09:07.885Z,12.78
2023-01-28T02:11:37.934Z,12.78
2023-01-28T02:14:07.707Z,12.75
2023-01-28T02:16:36.032Z,12.75
2023-01-28T02:19:04.637Z,12.74
2023-01-28T02:22:03.139Z,12.72
2023-01-28T02:25:12.667Z,12.70
2023-01-28T02:28:00.487Z,12.68
2023-01-28T02:30:34.718Z,12.69
2023-01-28T02:33:07.942Z,12.67
2023-01-28T02:35:43.877Z,12.65
2023-01-28T02:38:16.388Z,12.65
2023-01-28T02:41:03.417Z,12.63
2023-01-28T02:43:34.616Z,12.64
2023-01-28T02:46:32.321Z,12.60
2023-01-28T02:49:00.856Z,12.58
2023-01-28T02:51:40.933Z,12.54
2023-01-28T02:54:14.778Z,12.56
2023-01-28T02:56:50.943Z,12.57
2023-01-28T02:59:34.198Z,12.54
2023-01-28T03:02:10.207Z,12.59
2023-01-28T03:04:44.859Z,12.67
2023-01-28T03:07:16.986Z,12.76
2023-01-28T03:09:48.638Z,12.83
2023-01-28T03:12:39.705Z,12.96
2023-01-28T03:15:29.817Z,13.07
2023-01-28T03:18:20.349Z,13.15
2023-01-28T03:21:11.165Z,13.18
2023-01-28T03:24:01.250Z,13.23
2023-01-28T03:26:50.573Z,13.25
2023-01-28T03:29:41.723Z,13.26
2023-01-28T03:32:30.638Z,13.26
2023-01-28T03:35:17.253Z,13.25
2023-01-28T03:37:45.629Z,13.24
2023-01-28T03:40:15.052Z,13.24
2023-01-28T03:42:43.419Z,13.23
2023-01-28T03:45:14.403Z,13.20
2023-01-28T03:47:44.617Z,13.20
2023-01-28T03:50:13.239Z,13.20
2023-01-28T03:52:42.841Z,13.18
2023-01-28T03:55:15.056Z,13.14
2023-01-28T03:57:46.697Z,13.14
2023-01-28T04:00:18.259Z,13.13
2023-01-28T04:02:47.939Z,13.12
2023-01-28T04:05:19.861Z,13.05
2023-01-28T04:07:47.946Z,13.08
2023-01-28T04:10:17.027Z,13.06
2023-01-28T04:12:45.543Z,13.00
2023-01-28T04:15:16.821Z,13.02
2023-01-28T04:17:47.684Z,13.00
2023-01-28T04:20:22.398Z,12.98
2023-01-28T04:22:50.511Z,12.97
2023-01-28T04:25:18.732Z,12.94
2023-01-28T04:27:46.953Z,12.92
2023-01-28T04:30:15.386Z,12.92
2023-01-28T04:32:50.448Z,12.91
2023-01-28T04:35:18.950Z,12.88
2023-01-28T04:37:47.184Z,12.87
2023-01-28T04:40:15.524Z,12.89
2023-01-28T04:42:44.156Z,12.93
2023-01-28T04:45:12.875Z,13.01
2023-01-28T04:47:41.142Z,13.08
2023-01-28T04:50:11.623Z,13.20
2023-01-28T04:52:40.390Z,13.29
2023-01-28T04:55:09.637Z,13.36
2023-01-28T04:57:37.936Z,13.47
2023-01-28T05:00:07.405Z,13.58
2023-01-28T05:02:35.718Z,13.67
2023-01-28T05:05:06.153Z,13.78
2023-01-28T05:07:36.100Z,13.87
2023-01-28T05:10:05.467Z,13.96
2023-01-28T05:12:34.156Z,14.06
2023-01-28T05:15:02.217Z,14.14
2023-01-28T05:17:30.473Z,14.22
2023-01-28T05:19:58.735Z,14.31
2023-01-28T05:22:27.011Z,14.41
2023-01-28T05:24:56.665Z,14.51
2023-01-28T05:27:25.008Z,14.61
2023-01-28T05:29:53.164Z,14.71
2023-01-28T05:32:21.498Z,14.74
2023-01-28T05:34:49.724Z,14.88
2023-01-28T05:37:17.956Z,14.96
2023-01-28T05:39:46.311Z,15.00
2023-01-28T05:42:17.529Z,15.04
2023-01-28T05:44:45.638Z,15.06
2023-01-28T05:47:13.799Z,15.09
2023-01-28T05:49:42.442Z,15.10
2023-01-28T05:52:10.496Z,15.09
2023-01-28T05:54:38.640Z,15.12
2023-01-28T05:57:07.133Z,15.13
2023-01-28T05:59:37.991Z,15.09
2023-01-28T06:02:06.164Z,15.09
2023-01-28T06:04:34.405Z,15.05
2023-01-28T06:07:02.581Z,15.02
2023-01-28T06:09:30.701Z,15.01
2023-01-28T06:11:58.757Z,14.98
2023-01-28T06:14:26.832Z,14.94
2023-01-28T06:16:56.258Z,14.91
2023-01-28T06:19:24.381Z,14.86
2023-01-28T06:21:52.510Z,14.83
2023-01-28T06:24:20.609Z,14.77
2023-01-28T06:26:48.842Z,14.74
2023-01-28T06:29:17.055Z,14.66
2023-01-28T06:31:45.464Z,14.63
2023-01-28T06:34:15.446Z,14.58
2023-01-28T06:36:43.554Z,14.54
2023-01-28T06:39:12.199Z,14.49
2023-01-28T06:41:40.407Z,14.44
2023-01-28T06:44:08.560Z,14.40
2023-01-28T06:46:36.953Z,14.36
2023-01-28T06:49:05.283Z,14.32
2023-01-28T06:51:34.734Z,14.28
2023-01-28T06:54:03.068Z,14.23
2023-01-28T06:56:31.212Z,14.18
2023-01-28T06:58:59.294Z,14.15
2023-01-28T07:01:27.649Z,14.11
2023-01-28T07:03:55.975Z,14.07
2023-01-28T07:06:24.472Z,14.03
2023-01-28T07:08:53.911Z,13.99
2023-01-28T07:11:22.426Z,13.94
2023-01-28T07:13:50.817Z,13.95
2023-01-28T07:16:18.985Z,13.87
2023-01-28T07:18:50.844Z,13.92
2023-01-28T07:21:19.081Z,13.93
2023-01-28T07:23:47.432Z,14.03
2023-01-28T07:26:16.943Z,14.08
2023-01-28T07:28:45.053Z,14.15
2023-01-28T07:31:14.480Z,14.23
2023-01-28T07:33:42.889Z,14.31
2023-01-28T07:36:11.127Z,14.42
2023-01-28T07:38:39.231Z,14.50
2023-01-28T07:41:07.363Z,14.56
2023-01-28T07:43:36.903Z,14.67
2023-01-28T07:46:05.377Z,14.74
2023-01-28T07:48:33.451Z,14.80
2023-01-28T07:51:01.585Z,14.83
2023-01-28T07:53:29.735Z,14.86
2023-01-28T07:56:00.847Z,14.85
2023-01-28T07:58:29.268Z,14.87
2023-01-28T08:00:59.801Z,14.86
2023-01-28T08:03:28.702Z,14.87
2023-01-28T08:05:58.054Z,14.83
2023-01-28T08:08:27.734Z,14.81
2023-01-28T08:10:55.914Z,14.79
2023-01-28T08:13:24.003Z,14.77
2023-01-28T08:15:56.718Z,14.73
2023-01-28T08:18:26.378Z,14.69
2023-01-28T08:20:56.531Z,14.69
2023-01-28T08:23:26.925Z,14.65
2023-01-28T08:25:55.881Z,14.62
2023-01-28T08:28:24.056Z,14.56
2023-01-28T08:30:52.360Z,14.52
2023-01-28T08:33:21.476Z,14.50
2023-01-28T08:35:50.900Z,14.47
2023-01-28T08:38:20.411Z,14.44
2023-01-28T08:40:50.497Z,14.40
2023-01-28T08:43:18.567Z,14.37
2023-01-28T08:45:46.631Z,14.34
2023-01-28T08:48:17.862Z,14.29
2023-01-28T08:50:46.076Z,14.25
2023-01-28T08:53:17.297Z,14.22
2023-01-28T08:55:46.360Z,14.20
2023-01-28T08:58:15.953Z,14.14
2023-01-28T09:00:45.094Z,14.09
2023-01-28T09:03:13.231Z,14.10
2023-01-28T09:05:41.717Z,14.06
2023-01-28T09:08:11.754Z,14.03
2023-01-28T09:10:42.383Z,14.01
2023-01-28T09:13:12.529Z,13.97
2023-01-28T09:15:41.162Z,13.95
2023-01-28T09:18:09.753Z,13.91
2023-01-28T09:20:38.985Z,13.90
2023-01-28T09:23:08.146Z,13.87
2023-01-28T09:25:37.198Z,13.86
2023-01-28T09:28:07.492Z,13.83
2023-01-28T09:30:37.876Z,13.80
2023-01-28T09:33:07.574Z,13.77
2023-01-28T09:35:36.927Z,13.75
2023-01-28T09:38:07.955Z,13.71
2023-01-28T09:40:43.367Z,13.70
2023-01-28T09:43:52.639Z,13.67
2023-01-28T09:46:20.828Z,13.62
2023-01-28T09:48:52.123Z,13.62
2023-01-28T09:51:33.015Z,13.62
2023-01-28T09:54:08.048Z,13.63
2023-01-28T09:56:42.524Z,13.69
2023-01-28T09:59:20.167Z,13.70
2023-01-28T10:01:54.582Z,13.68
2023-01-28T10:04:40.458Z,13.68
2023-01-28T10:07:26.166Z,13.67
2023-01-28T10:10:02.727Z,13.66
2023-01-28T10:12:54.595Z,13.59
2023-01-28T10:15:48.256Z,13.59
2023-01-28T10:18:18.204Z,13.59
2023-01-28T10:20:50.655Z,13.57
2023-01-28T10:23:23.696Z,13.56
2023-01-28T10:25:52.012Z,13.56
2023-01-28T10:28:24.107Z,13.56
2023-01-28T10:30:54.194Z,13.57
2023-01-28T10:33:30.683Z,13.55
2023-01-28T10:35:59.032Z,13.57
2023-01-28T10:38:28.973Z,13.52
2023-01-28T10:41:01.571Z,13.54
2023-01-28T10:43:34.564Z,13.54
2023-01-28T10:46:08.725Z,13.53
2023-01-28T10:48:42.318Z,13.51
2023-01-28T10:51:10.400Z,13.51
2023-01-28T10:53:40.773Z,13.50
2023-01-28T10:56:11.772Z,13.49
2023-01-28T10:58:58.324Z,13.55
2023-01-28T11:01:40.316Z,13.64
2023-01-28T11:04:20.310Z,13.78
2023-01-28T11:06:59.446Z,13.89
2023-01-28T11:09:30.863Z,13.97
2023-01-28T11:11:59.877Z,14.04
2023-01-28T11:14:28.826Z,14.15
2023-01-28T11:16:59.587Z,14.22
2023-01-28T11:19:35.723Z,14.30
2023-01-28T11:22:04.485Z,14.37
2023-01-28T11:24:35.271Z,14.42
2023-01-28T11:27:25.131Z,14.50
2023-01-28T11:29:57.465Z,14.60
2023-01-28T11:32:28.053Z,14.71
2023-01-28T11:34:59.127Z,14.79
2023-01-28T11:37:29.283Z,14.89
2023-01-28T11:40:19.140Z,14.98
2023-01-28T11:42:51.058Z,15.08
2023-01-28T11:45:21.845Z,15.15
2023-01-28T11:48:02.013Z,15.25
2023-01-28T11:50:43.694Z,15.35
2023-01-28T11:53:40.414Z,15.49
2023-01-28T11:56:23.248Z,15.59
2023-01-28T11:59:02.227Z,15.68
2023-01-28T12:01:38.462Z,15.79
2023-01-28T12:04:34.441Z,15.85
2023-01-28T12:07:22.250Z,15.90
2023-01-28T12:09:57.934Z,15.94
2023-01-28T12:12:59.631Z,15.98
2023-01-28T12:16:01.617Z,15.98
2023-01-28T12:18:45.084Z,16.02
2023-01-28T12:21:21.755Z,16.08
2023-01-28T12:24:03.118Z,16.12
2023-01-28T12:26:43.771Z,16.17
2023-01-28T12:29:24.016Z,16.23
2023-01-28T12:32:28.775Z,16.24
2023-01-28T12:35:13.243Z,16.30
2023-01-28T12:37:57.353Z,16.33
2023-01-28T12:40:58.140Z,16.39
2023-01-28T12:43:43.604Z,16.44
2023-01-28T12:46:19.798Z,16.48
2023-01-28T12:48:52.638Z,16.52
2023-01-28T12:51:26.031Z,16.54
2023-01-28T12:54:01.572Z,16.60
2023-01-28T12:56:34.617Z,16.62
2023-01-28T12:59:08.149Z,16.68
2023-01-28T13:01:42.836Z,16.71
2023-01-28T13:04:18.983Z,16.72
2023-01-28T13:06:52.376Z,16.77
2023-01-28T13:09:25.653Z,16.78
2023-01-28T13:11:55.300Z,16.78
2023-01-28T13:14:29.601Z,16.77
2023-01-28T13:16:57.777Z,16.76
2023-01-28T13:19:40.068Z,16.76
2023-01-28T13:22:14.815Z,16.73
2023-01-28T13:24:44.388Z,16.71
2023-01-28T13:27:16.286Z,16.68
2023-01-28T13:29:49.985Z,16.65
2023-01-28T13:32:33.822Z,16.64
2023-01-28T13:35:06.026Z,16.59
2023-01-28T13:37:38.740Z,16.55
2023-01-28T13:40:24.418Z,16.54
2023-01-28T13:43:01.049Z,16.50
2023-01-28T13:45:29.735Z,16.46
2023-01-28T13:48:05.001Z,16.40
2023-01-28T13:50:40.352Z,16.41
2023-01-28T13:53:20.360Z,16.38
2023-01-28T13:55:54.201Z,16.35
2023-01-28T13:59:10.017Z,16.30
2023-01-28T14:02:26.709Z,16.27
2023-01-28T14:05:37.003Z,16.21
2023-01-28T14:08:42.171Z,16.14
2023-01-28T14:11:28.193Z,16.11
2023-01-28T14:14:16.463Z,16.06
2023-01-28T14:16:52.217Z,16.01
2023-01-28T14:19:27.408Z,15.94
2023-01-28T14:21:56.748Z,15.93
2023-01-28T14:24:25.742Z,15.88
2023-01-28T14:27:02.802Z,15.87
2023-01-28T14:29:48.575Z,15.84
2023-01-28T14:32:20.163Z,15.82
2023-01-28T14:34:49.113Z,15.80
2023-01-28T14:37:19.845Z,15.77
2023-01-28T14:39:52.324Z,15.73
2023-01-28T14:42:24.429Z,15.70
2023-01-28T14:45:02.650Z,15.68
2023-01-28T16:10:34.328Z,14.96
2023-01-28T16:13:07.374Z,14.93
2023-01-28T16:15:38.425Z,14.92
2023-01-28T16:18:07.994Z,14.88
2023-01-28T16:20:36.529Z,14.89
2023-01-28T16:23:05.504Z,14.89
2023-01-28T16:25:38.141Z,14.88
2023-01-28T16:28:21.171Z,14.89
2023-01-28T16:30:49.652Z,14.88
2023-01-28T16:33:20.466Z,14.86
2023-01-28T16:36:06.228Z,14.85
2023-01-28T16:38:36.010Z,14.83
2023-01-28T16:41:05.783Z,14.78
2023-01-28T16:46:04.162Z,14.70
2023-01-28T16:48:33.604Z,14.64
2023-01-28T16:51:01.997Z,14.58
2023-01-28T16:53:34.723Z,14.53
2023-01-28T16:56:03.545Z,14.50
2023-01-28T16:58:33.100Z,14.43
2023-01-28T17:01:01.658Z,14.41
2023-01-28T17:03:29.891Z,14.38
2023-01-28T17:05:58.505Z,14.33
2023-01-28T17:08:26.852Z,14.30
2023-01-28T17:10:55.754Z,14.25
2023-01-28T17:13:24.141Z,14.25
2023-01-28T17:15:54.065Z,14.23
2023-01-28T17:18:22.321Z,14.27
2023-01-28T17:20:50.810Z,14.32
2023-01-28T17:23:23.047Z,14.41
2023-01-28T17:25:51.440Z,14.50
2023-01-28T17:28:20.121Z,14.59
2023-01-28T17:30:48.431Z,14.71
2023-01-28T17:33:18.120Z,14.79
2023-01-28T17:35:48.079Z,14.91
2023-01-28T17:38:16.581Z,15.00
2023-01-28T17:40:44.782Z,15.08
2023-01-28T17:43:12.941Z,15.13
2023-01-28T17:45:41.064Z,15.25
2023-01-28T17:48:09.296Z,15.34
2023-01-28T17:50:41.405Z,15.43
2023-01-28T17:53:11.784Z,15.52
2023-01-28T17:55:40.294Z,15.61
2023-01-28T17:58:08.319Z,15.67
2023-01-28T18:00:38.502Z,15.78
2023-01-28T18:03:06.815Z,15.84
2023-01-28T18:05:34.892Z,15.87
2023-01-28T18:08:05.071Z,15.92
2023-01-28T18:10:33.247Z,15.95
2023-01-28T18:13:01.814Z,15.97
2023-01-28T18:15:30.125Z,15.98
2023-01-28T18:17:58.191Z,16.02
2023-01-28T18:20:26.463Z,16.05
2023-01-28T18:22:54.859Z,16.07
2023-01-28T18:25:24.692Z,16.10
2023-01-28T18:27:53.290Z,16.13
2023-01-28T18:30:22.710Z,16.20
2023-01-28T18:32:50.794Z,16.25
2023-01-28T18:35:19.157Z,16.31
2023-01-28T18:37:47.610Z,16.35
2023-01-28T18:40:16.858Z,16.40
2023-01-28T18:42:46.807Z,16.45
2023-01-28T18:45:15.495Z,16.51
2023-01-28T18:47:43.862Z,16.56
2023-01-28T18:50:14.142Z,16.62
2023-01-28T18:52:44.324Z,16.68
2023-01-28T18:55:12.855Z,16.75
2023-01-28T18:57:41.034Z,16.79
2023-01-28T19:00:12.441Z,16.84
2023-01-28T19:02:41.497Z,16.92
2023-01-28T19:05:11.008Z,16.97
2023-01-28T19:07:39.490Z,17.01
2023-01-28T19:10:08.411Z,17.00
2023-01-28T19:12:37.414Z,17.01
2023-01-28T19:15:06.703Z,17.01
2023-01-28T19:17:36.505Z,17.03
2023-01-28T19:20:05.941Z,17.04
2023-01-28T19:22:35.182Z,17.02
2023-01-28T19:25:04.336Z,17.06
2023-01-28T19:27:32.545Z,17.05
2023-01-28T19:30:02.763Z,17.11
2023-01-28T19:32:31.640Z,17.15
2023-01-28T19:35:01.627Z,17.19
2023-01-28T19:37:30.457Z,17.24
2023-01-28T19:39:58.708Z,17.26
2023-01-28T19:42:27.114Z,17.28
2023-01-28T19:44:55.435Z,17.32
2023-01-28T19:47:23.852Z,17.36
2023-01-28T19:49:52.106Z,17.42
2023-01-28T19:52:21.599Z,17.47
2023-01-28T19:54:49.891Z,17.51
2023-01-28T19:57:21.597Z,17.56
2023-01-28T19:59:49.815Z,17.55
2023-01-28T20:02:18.080Z,17.58
2023-01-28T20:04:59.780Z,17.58
2023-01-28T20:07:30.499Z,17.59
2023-01-28T20:09:59.816Z,17.60
2023-01-28T20:12:28.908Z,17.59
2023-01-28T20:14:57.188Z,17.60
2023-01-28T20:17:28.519Z,17.60
2023-01-28T20:19:57.025Z,17.59
2023-01-28T20:22:25.308Z,17.60
2023-01-28T20:24:57.804Z,17.60
2023-01-28T20:27:26.151Z,17.62
2023-01-28T20:29:55.234Z,17.64
2023-01-28T20:32:23.784Z,17.64
2023-01-28T20:34:52.763Z,17.68
2023-01-28T20:37:21.170Z,17.72
2023-01-28T20:39:49.699Z,17.76
2023-01-28T20:42:19.749Z,17.78
2023-01-28T20:44:48.414Z,17.80
2023-01-28T20:47:16.643Z,17.83
2023-01-28T20:49:44.778Z,17.89
2023-01-28T20:52:13.197Z,17.95
2023-01-28T20:54:41.977Z,17.96
2023-01-28T20:57:10.354Z,18.01
2023-01-28T20:59:41.400Z,18.09
2023-01-28T21:02:10.309Z,18.12
2023-01-28T21:04:38.648Z,18.15
2023-01-28T21:07:06.692Z,18.16
2023-01-28T21:09:35.134Z,18.13
2023-01-28T21:12:03.389Z,18.12
2023-01-28T21:14:31.709Z,18.09
2023-01-28T21:17:01.223Z,18.05
2023-01-28T21:19:29.767Z,18.01
2023-01-28T21:21:58.315Z,17.97
2023-01-28T21:24:26.430Z,17.91
2023-01-28T21:26:54.890Z,17.85
2023-01-28T21:29:23.149Z,17.81
2023-01-28T21:31:51.281Z,17.76
2023-01-28T21:34:20.905Z,17.69
2023-01-28T21:36:49.174Z,17.64
2023-01-28T21:39:17.495Z,17.57
2023-01-28T21:41:45.659Z,17.50
2023-01-28T21:44:13.748Z,17.44
2023-01-28T21:46:41.923Z,17.38
2023-01-28T21:49:11.903Z,17.30
2023-01-28T21:51:46.119Z,17.24
2023-01-28T21:54:15.682Z,17.16
2023-01-28T21:56:44.996Z,17.09
2023-01-28T21:59:32.650Z,17.04
2023-01-28T22:02:02.426Z,16.98
2023-01-28T22:04:33.645Z,16.91
2023-01-28T22:07:04.442Z,16.85
2023-01-28T22:09:33.781Z,16.79
2023-01-28T22:12:03.407Z,16.73
2023-01-28T22:14:31.634Z,16.65
2023-01-28T22:16:59.910Z,16.57
2023-01-28T22:19:28.229Z,16.49
2023-01-28T22:21:56.384Z,16.47
2023-01-28T22:24:26.224Z,16.41
2023-01-28T22:26:55.563Z,16.36
2023-01-28T22:29:25.049Z,16.32
2023-01-28T22:31:54.815Z,16.25
2023-01-28T22:34:23.509Z,16.20
2023-01-28T22:36:52.631Z,16.15
2023-01-28T22:39:20.783Z,16.10
2023-01-28T22:41:50.256Z,16.04
2023-01-28T22:44:19.934Z,15.98
2023-01-28T22:46:48.504Z,15.91
2023-01-28T22:49:16.678Z,15.87
2023-01-28T22:51:45.119Z,15.83
2023-01-28T22:54:14.910Z,15.77
2023-01-28T22:56:43.462Z,15.74
2023-01-28T22:59:13.294Z,15.68
2023-01-28T23:01:41.632Z,15.64
2023-01-28T23:04:10.056Z,15.58
2023-01-28T23:06:38.254Z,15.53
2023-01-28T23:09:06.359Z,15.49
2023-01-28T23:11:34.787Z,15.45
2023-01-28T23:14:21.799Z,15.41
2023-01-28T23:17:20.458Z,15.36
2023-01-28T23:20:06.384Z,15.31
2023-01-28T23:22:52.591Z,15.26
2023-01-28T23:25:21.225Z,15.20
2023-01-28T23:27:49.335Z,15.16
2023-01-28T23:30:19.806Z,15.14
2023-01-28T23:32:50.988Z,15.09
2023-01-28T23:35:20.159Z,15.06
2023-01-28T23:37:48.856Z,15.03
2023-01-28T23:40:17.842Z,15.00
2023-01-28T23:42:49.553Z,14.96
2023-01-28T23:45:18.247Z,14.93
2023-01-28T23:47:46.543Z,14.86
2023-01-28T23:50:18.594Z,14.81
2023-01-28T23:52:47.055Z,14.82
2023-01-28T23:55:15.431Z,14.78
2023-01-28T23:57:43.556Z,14.74
